Time;durP1;ratioP1;P1;durP2;ratioP2;P2;SDS_P1;SDS_P2;PMS_P1;PMS_P2;Temp;Humidity;BMP_temperature;BMP_pressure;BME280_temperature;BME280_humidity;BME280_pressure;Samples;Min_cycle;Max_cycle;Signal;HPM_P1;HPM_P2
2023/12/31 00:01:18;;;;;;;3.95;2.53;;;8.40;99.90;;;;;;6278039;22;20046;-77
2023/12/31 00:03:44;;;;;;;3.70;2.38;;;8.40;99.90;;;;;;6303006;22;20026;-77
2023/12/31 00:06:09;;;;;;;6.35;2.53;;;8.40;99.90;;;;;;6276069;22;20030;-77
2023/12/31 00:08:35;;;;;;;2.97;2.13;;;8.40;99.90;;;;;;6275692;22;20076;-77
2023/12/31 00:11:02;;;;;;;3.92;2.58;;;8.40;99.90;;;;;;6301736;22;20069;-77
2023/12/31 00:13:28;;;;;;;3.45;2.33;;;8.40;99.90;;;;;;6301259;22;20168;-77
2023/12/31 00:15:53;;;;;;;4.68;2.63;;;8.40;99.90;;;;;;6275509;22;20461;-77
2023/12/31 00:18:19;;;;;;;4.18;2.50;;;8.50;99.90;;;;;;6301253;22;20022;-77
2023/12/31 00:20:45;;;;;;;3.45;2.53;;;8.50;99.90;;;;;;6300973;22;20007;-77
2023/12/31 00:23:11;;;;;;;3.78;2.70;;;8.40;99.90;;;;;;6275513;22;20019;-77
2023/12/31 00:25:40;;;;;;;4.97;2.30;;;8.40;99.90;;;;;;6301155;22;20097;-77
2023/12/31 00:28:05;;;;;;;5.88;3.28;;;8.40;99.90;;;;;;6275250;22;20081;-77
2023/12/31 00:30:31;;;;;;;5.53;3.45;;;8.40;99.90;;;;;;6300907;22;20057;-77
2023/12/31 00:32:57;;;;;;;6.03;3.60;;;8.40;99.90;;;;;;6275757;22;20026;-77
2023/12/31 00:35:23;;;;;;;5.38;3.33;;;8.40;99.90;;;;;;6275631;22;20007;-77
2023/12/31 00:37:49;;;;;;;4.60;2.65;;;8.40;99.90;;;;;;6299448;22;20011;-77
2023/12/31 00:40:14;;;;;;;4.68;2.95;;;8.40;99.90;;;;;;6299850;22;20019;-77
2023/12/31 00:42:40;;;;;;;6.22;3.03;;;8.40;99.90;;;;;;6274216;22;20030;-77
2023/12/31 00:45:09;;;;;;;3.92;3.08;;;8.40;99.90;;;;;;6300062;22;20202;-77
2023/12/31 00:47:35;;;;;;;4.53;2.75;;;8.40;99.90;;;;;;6274147;22;20051;-77
2023/12/31 00:50:00;;;;;;;8.68;3.17;;;8.40;99.90;;;;;;6273690;22;20022;-78
2023/12/31 00:52:26;;;;;;;4.70;3.28;;;8.30;99.90;;;;;;6274044;22;20022;-77
2023/12/31 00:54:52;;;;;;;3.85;2.80;;;8.30;99.90;;;;;;6299612;22;20023;-77
2023/12/31 00:57:18;;;;;;;3.67;3.00;;;8.40;99.90;;;;;;6274267;22;20023;-77
2023/12/31 00:59:44;;;;;;;8.13;3.70;;;8.30;99.90;;;;;;6273889;22;20072;-77
2023/12/31 01:02:10;;;;;;;2.90;2.60;;;8.30;99.90;;;;;;6274171;22;20413;-77
2023/12/31 01:04:36;;;;;;;6.05;3.03;;;8.30;99.90;;;;;;6274544;22;20043;-77
2023/12/31 01:07:02;;;;;;;4.00;2.75;;;8.40;99.90;;;;;;6274168;22;20022;-77
2023/12/31 01:09:29;;;;;;;3.28;2.92;;;8.40;99.90;;;;;;6300335;22;20023;-77
2023/12/31 01:11:54;;;;;;;5.10;3.17;;;8.40;99.90;;;;;;6274383;22;20341;-77
2023/12/31 01:14:20;;;;;;;3.53;2.50;;;8.40;99.90;;;;;;6299968;22;20026;-77
2023/12/31 01:16:46;;;;;;;5.63;3.00;;;8.40;99.90;;;;;;6300161;22;20246;-77
2023/12/31 01:19:12;;;;;;;8.15;2.92;;;8.40;99.90;;;;;;6273762;22;20019;-77
2023/12/31 01:21:39;;;;;;;3.58;2.65;;;8.40;99.90;;;;;;6274244;22;20008;-77
2023/12/31 01:24:05;;;;;;;3.92;2.72;;;8.40;99.90;;;;;;6274102;22;20026;-77
2023/12/31 01:26:31;;;;;;;6.00;2.40;;;8.40;99.90;;;;;;6274263;22;20008;-77
2023/12/31 01:28:57;;;;;;;3.05;2.50;;;8.40;99.90;;;;;;6274198;22;20046;-77
2023/12/31 01:31:24;;;;;;;3.20;2.80;;;8.50;99.90;;;;;;6274091;22;20019;-77
2023/12/31 01:33:55;;;;;;;3.97;2.65;;;8.40;99.90;;;;;;6299573;22;20012;-77
2023/12/31 01:36:25;;;;;;;4.25;2.70;;;8.40;99.90;;;;;;6274060;22;20076;-77
2023/12/31 01:38:51;;;;;;;3.95;2.95;;;8.40;99.90;;;;;;6274162;22;20019;-77
2023/12/31 01:41:16;;;;;;;4.43;3.28;;;8.40;99.90;;;;;;6299672;22;20018;-77
2023/12/31 01:43:44;;;;;;;4.20;2.80;;;8.40;99.90;;;;;;6273997;22;20477;-76
2023/12/31 01:46:11;;;;;;;4.68;2.65;;;8.40;99.90;;;;;;6273997;22;20090;-77
2023/12/31 01:48:39;;;;;;;5.45;2.88;;;8.40;99.90;;;;;;6298972;22;20019;-77
2023/12/31 01:51:09;;;;;;;5.22;2.55;;;8.40;99.90;;;;;;6273925;22;20411;-77
2023/12/31 01:53:38;;;;;;;8.85;2.65;;;8.40;99.90;;;;;;6273917;22;20403;-77
2023/12/31 01:56:13;;;;;;;3.20;2.38;;;8.40;99.90;;;;;;6299767;22;20079;-77
2023/12/31 01:58:46;;;;;;;4.28;2.50;;;8.40;99.90;;;;;;6274354;22;20018;-77
2023/12/31 02:01:23;;;;;;;3.13;2.35;;;8.40;99.90;;;;;;6299882;22;20469;-77
2023/12/31 02:03:52;;;;;;;4.20;2.70;;;8.40;99.90;;;;;;6299790;22;20011;-77
2023/12/31 02:06:18;;;;;;;3.05;2.50;;;8.40;99.90;;;;;;6299243;22;20325;-77
2023/12/31 02:08:45;;;;;;;5.57;2.28;;;8.40;99.90;;;;;;6273549;22;20026;-77
2023/12/31 02:11:12;;;;;;;3.85;2.50;;;8.40;99.90;;;;;;6301284;22;20034;-77
2023/12/31 02:13:51;;;;;;;3.10;2.30;;;8.40;99.90;;;;;;6299493;22;20048;-77
2023/12/31 02:16:24;;;;;;;4.25;2.30;;;8.50;99.90;;;;;;6274090;22;20015;-77
2023/12/31 02:18:49;;;;;;;4.00;2.28;;;8.40;99.90;;;;;;6272760;22;20046;-77
2023/12/31 02:21:19;;;;;;;2.42;2.15;;;8.50;99.90;;;;;;6299071;22;20019;-75
2023/12/31 02:23:55;;;;;;;2.15;1.95;;;8.50;99.90;;;;;;6275511;22;20081;-75
2023/12/31 02:26:24;;;;;;;5.10;2.20;;;8.50;99.90;;;;;;6273655;22;20067;-76
2023/12/31 02:28:50;;;;;;;2.58;2.10;;;8.50;99.90;;;;;;6273647;22;20019;-76
2023/12/31 02:31:24;;;;;;;2.95;2.17;;;8.50;99.90;;;;;;6299336;22;20064;-76
2023/12/31 02:33:59;;;;;;;3.28;2.38;;;8.50;99.90;;;;;;6299897;22;20135;-76
2023/12/31 02:36:45;;;;;;;3.55;1.60;;;8.60;99.90;;;;;;6299823;22;20011;-76
2023/12/31 02:39:29;;;;;;;2.40;1.75;;;8.60;99.90;;;;;;6298459;22;20061;-76
2023/12/31 02:42:02;;;;;;;;;;;8.60;99.90;;;;;;6298600;22;20057;-76
2023/12/31 02:44:49;;;;;;;2.85;1.95;;;8.60;99.90;;;;;;6298422;22;20625;-76
2023/12/31 02:47:19;;;;;;;3.95;1.85;;;8.60;99.90;;;;;;6246106;22;20022;-76
2023/12/31 02:49:49;;;;;;;2.88;2.20;;;8.60;99.90;;;;;;6299607;22;20011;-77
2023/12/31 02:52:21;;;;;;;2.30;1.80;;;8.70;99.90;;;;;;6299145;22;20046;-76
2023/12/31 02:54:57;;;;;;;2.00;1.90;;;8.60;99.90;;;;;;6272060;22;20020;-77
2023/12/31 02:57:47;;;;;;;2.88;1.90;;;8.60;99.90;;;;;;6298797;22;20030;-77
2023/12/31 03:00:32;;;;;;;2.95;1.58;;;8.50;99.90;;;;;;6301742;22;20607;-77
2023/12/31 03:03:14;;;;;;;2.90;2.10;;;8.40;99.90;;;;;;6278088;22;20011;-76
2023/12/31 03:05:42;;;;;;;4.40;2.30;;;8.40;99.90;;;;;;6275715;22;20022;-76
2023/12/31 03:08:08;;;;;;;2.28;1.90;;;8.30;99.90;;;;;;6275313;22;20332;-77
2023/12/31 03:10:37;;;;;;;2.95;2.05;;;8.20;99.90;;;;;;6275808;22;20086;-77
2023/12/31 03:13:17;;;;;;;2.92;2.38;;;8.20;99.90;;;;;;6302961;22;20103;-77
2023/12/31 03:15:48;;;;;;;5.22;2.25;;;8.20;99.90;;;;;;6300886;22;20015;-77
2023/12/31 03:18:20;;;;;;;3.85;2.13;;;8.10;99.90;;;;;;6301002;22;20016;-77
2023/12/31 03:20:49;;;;;;;2.22;2.03;;;8.00;99.90;;;;;;6301001;22;20049;-76
2023/12/31 03:23:16;;;;;;;2.72;2.20;;;8.10;99.90;;;;;;6275425;22;20019;-77
2023/12/31 03:25:47;;;;;;;2.38;2.10;;;8.10;99.90;;;;;;6276340;22;20099;-77
2023/12/31 03:28:22;;;;;;;3.53;1.85;;;8.10;99.90;;;;;;6300893;22;20078;-77
2023/12/31 03:30:54;;;;;;;2.35;2.15;;;8.00;99.90;;;;;;6274470;22;20098;-77
2023/12/31 03:33:49;;;;;;;2.42;2.20;;;8.00;99.90;;;;;;6243128;22;20213;-77
2023/12/31 03:36:15;;;;;;;2.78;2.10;;;7.90;99.90;;;;;;6274860;22;20019;-76
2023/12/31 03:38:54;;;;;;;2.80;2.13;;;7.90;99.90;;;;;;6275946;22;20015;-77
2023/12/31 03:41:47;;;;;;;2.53;2.33;;;7.90;99.90;;;;;;6299492;22;20076;-77
2023/12/31 03:44:16;;;;;;;2.92;2.67;;;7.90;99.90;;;;;;6301200;22;20022;-77
2023/12/31 03:46:46;;;;;;;5.03;2.45;;;7.90;99.90;;;;;;6300823;22;20019;-77
2023/12/31 03:49:13;;;;;;;1.92;1.83;;;7.80;99.90;;;;;;6274961;22;20110;-77
2023/12/31 03:51:42;;;;;;;3.33;2.08;;;7.90;99.90;;;;;;6275783;22;20084;-76
2023/12/31 03:54:08;;;;;;;2.40;2.15;;;7.80;99.90;;;;;;6274971;22;20019;-77
2023/12/31 03:56:36;;;;;;;3.03;2.72;;;7.80;99.90;;;;;;6302035;22;20277;-77
2023/12/31 03:59:04;;;;;;;2.65;1.77;;;7.70;99.90;;;;;;6274262;22;20023;-77
2023/12/31 04:01:29;;;;;;;2.38;2.17;;;7.70;99.90;;;;;;6302377;22;20017;-76
2023/12/31 04:03:55;;;;;;;3.63;2.20;;;7.70;99.90;;;;;;6300239;22;20292;-76
2023/12/31 04:06:21;;;;;;;3.20;2.47;;;7.80;99.90;;;;;;6300645;22;20064;-77
2023/12/31 04:08:47;;;;;;;5.10;2.53;;;7.80;99.90;;;;;;6302198;22;20397;-77
2023/12/31 04:11:16;;;;;;;4.63;2.40;;;7.70;99.90;;;;;;6300053;22;20011;-77
2023/12/31 04:13:45;;;;;;;2.40;2.20;;;7.80;99.90;;;;;;6302158;22;20455;-77
2023/12/31 04:16:14;;;;;;;2.53;2.33;;;7.80;99.90;;;;;;6274643;22;20018;-76
2023/12/31 04:18:51;;;;;;;3.30;2.60;;;7.70;99.90;;;;;;6300429;22;20022;-77
2023/12/31 04:21:17;;;;;;;3.17;2.55;;;7.70;99.90;;;;;;6302171;22;20023;-76
2023/12/31 04:23:43;;;;;;;5.10;2.90;;;7.70;99.90;;;;;;6274501;22;20457;-77
2023/12/31 04:26:08;;;;;;;3.90;2.55;;;7.70;99.90;;;;;;6274489;22;20080;-77
2023/12/31 04:28:35;;;;;;;3.08;2.40;;;7.70;99.90;;;;;;6299868;22;20090;-77
2023/12/31 04:31:03;;;;;;;4.32;2.45;;;7.70;99.90;;;;;;6273910;22;20058;-76
2023/12/31 04:33:29;;;;;;;2.85;2.50;;;7.70;99.90;;;;;;6274380;22;20044;-76
2023/12/31 04:35:54;;;;;;;3.17;2.25;;;7.70;99.90;;;;;;6299800;22;20390;-76
2023/12/31 04:38:20;;;;;;;3.47;2.58;;;7.70;99.90;;;;;;6274946;22;20011;-77
2023/12/31 04:41:20;;;;;;;4.80;3.15;;;7.70;99.90;;;;;;6300324;22;20015;-76
2023/12/31 04:43:47;;;;;;;3.70;2.63;;;7.70;99.90;;;;;;6216678;22;20023;-76
2023/12/31 04:46:21;;;;;;;3.05;2.30;;;7.80;99.90;;;;;;6217419;22;20047;-76
2023/12/31 04:48:47;;;;;;;3.97;2.60;;;7.70;99.90;;;;;;6242129;22;20020;-77
2023/12/31 04:51:26;;;;;;;3.28;2.95;;;7.70;99.90;;;;;;6242117;22;20092;-76
2023/12/31 04:53:53;;;;;;;4.55;2.65;;;7.70;99.90;;;;;;6242128;22;20550;-77
2023/12/31 04:56:23;;;;;;;3.22;2.38;;;7.70;99.90;;;;;;6242108;22;20146;-77
2023/12/31 04:58:50;;;;;;;2.90;2.58;;;7.80;99.90;;;;;;6241866;22;20173;-76
2023/12/31 05:01:16;;;;;;;4.63;2.67;;;7.80;99.90;;;;;;6242359;22;20440;-76
2023/12/31 05:03:42;;;;;;;4.18;2.60;;;7.80;99.90;;;;;;6217012;22;20015;-77
2023/12/31 05:06:10;;;;;;;5.35;2.50;;;7.80;99.90;;;;;;6242359;22;20380;-76
2023/12/31 05:08:35;;;;;;;2.85;2.20;;;7.80;99.90;;;;;;6242629;22;20481;-77
2023/12/31 05:11:02;;;;;;;5.28;2.72;;;7.80;99.90;;;;;;6242707;22;20012;-76
2023/12/31 05:13:28;;;;;;;4.68;2.60;;;7.80;99.90;;;;;;6242174;22;20015;-77
2023/12/31 05:15:53;;;;;;;3.15;2.20;;;7.80;99.90;;;;;;6300369;22;20080;-76
2023/12/31 05:18:19;;;;;;;4.38;3.10;;;7.80;99.90;;;;;;6274687;22;20431;-77
2023/12/31 05:20:45;;;;;;;2.88;2.60;;;7.80;99.90;;;;;;6300141;22;20019;-77
2023/12/31 05:23:11;;;;;;;3.08;2.60;;;7.90;99.90;;;;;;6300388;22;20051;-77
2023/12/31 05:25:37;;;;;;;3.88;2.70;;;7.80;99.90;;;;;;6274012;22;20100;-77
2023/12/31 05:28:02;;;;;;;3.20;2.90;;;7.90;99.90;;;;;;6273833;22;20034;-77
2023/12/31 05:30:28;;;;;;;3.47;2.88;;;7.90;99.90;;;;;;6274251;22;20019;-77
2023/12/31 05:32:54;;;;;;;5.05;2.80;;;7.90;99.90;;;;;;6299848;22;20665;-77
2023/12/31 05:35:20;;;;;;;3.72;2.58;;;7.90;99.90;;;;;;6273865;22;20030;-77
2023/12/31 05:37:45;;;;;;;6.45;2.63;;;7.80;99.90;;;;;;6299960;22;20008;-77
2023/12/31 05:40:11;;;;;;;2.70;2.42;;;8.00;99.90;;;;;;6300093;22;20015;-77
2023/12/31 05:42:37;;;;;;;5.65;4.07;;;8.00;99.90;;;;;;6274018;22;20019;-77
2023/12/31 05:45:04;;;;;;;4.95;2.85;;;8.00;99.90;;;;;;6302050;22;20003;-77
2023/12/31 05:47:30;;;;;;;3.30;2.90;;;8.00;99.90;;;;;;6299943;22;20042;-77
2023/12/31 05:49:55;;;;;;;4.13;2.63;;;8.00;99.90;;;;;;6274131;22;20011;-77
2023/12/31 05:52:21;;;;;;;7.40;2.92;;;8.00;99.90;;;;;;6300115;22;20477;-77
2023/12/31 05:54:47;;;;;;;3.42;2.70;;;8.00;99.90;;;;;;6274160;22;20027;-77
2023/12/31 05:57:13;;;;;;;4.10;2.83;;;8.00;99.90;;;;;;6273996;22;20309;-77
2023/12/31 05:59:39;;;;;;;3.00;2.70;;;8.10;99.90;;;;;;6299494;22;20078;-76
2023/12/31 06:02:06;;;;;;;5.00;3.25;;;8.00;99.90;;;;;;6299745;22;20042;-77
2023/12/31 06:04:32;;;;;;;4.97;2.80;;;8.10;99.90;;;;;;6299661;22;20023;-77
2023/12/31 06:06:59;;;;;;;4.10;2.85;;;8.10;99.90;;;;;;6273666;22;20426;-77
2023/12/31 06:09:26;;;;;;;4.35;3.42;;;8.00;99.90;;;;;;6273194;22;20095;-77
2023/12/31 06:11:52;;;;;;;3.97;3.10;;;8.10;99.90;;;;;;6272877;22;20046;-76
2023/12/31 06:14:18;;;;;;;5.00;3.38;;;8.10;99.90;;;;;;6273572;22;20011;-77
2023/12/31 06:16:44;;;;;;;4.53;3.28;;;8.00;99.90;;;;;;6273430;22;20316;-77
2023/12/31 06:19:13;;;;;;;5.45;3.10;;;8.10;99.90;;;;;;6299289;22;20644;-77
2023/12/31 06:21:41;;;;;;;4.93;3.25;;;8.00;99.90;;;;;;6273201;22;20094;-77
2023/12/31 06:24:17;;;;;;;6.72;3.15;;;8.00;99.90;;;;;;6299706;22;20011;-77
2023/12/31 06:26:48;;;;;;;4.57;2.80;;;8.00;99.90;;;;;;6273480;22;20011;-77
2023/12/31 06:29:15;;;;;;;5.97;2.97;;;8.00;99.90;;;;;;6273108;22;20046;-77
2023/12/31 06:31:47;;;;;;;5.93;3.00;;;8.00;99.90;;;;;;6273386;22;20011;-77
2023/12/31 06:34:21;;;;;;;4.85;2.90;;;8.10;99.90;;;;;;6276291;22;20018;-77
2023/12/31 06:36:47;;;;;;;5.88;3.00;;;8.10;99.90;;;;;;6276056;22;20052;-77
2023/12/31 06:39:13;;;;;;;3.65;2.85;;;8.10;99.90;;;;;;6275384;22;20054;-78
2023/12/31 06:41:39;;;;;;;5.10;2.50;;;8.10;99.90;;;;;;6301468;22;20093;-77
2023/12/31 06:44:17;;;;;;;4.88;2.60;;;8.10;99.90;;;;;;6303541;22;20027;-77
2023/12/31 06:46:44;;;;;;;5.90;3.28;;;8.20;99.90;;;;;;6302975;22;20015;-77
2023/12/31 06:49:10;;;;;;;6.25;3.10;;;8.20;99.90;;;;;;6301343;22;20116;-77
2023/12/31 06:51:35;;;;;;;2.97;2.60;;;8.10;99.90;;;;;;6301706;22;20022;-77
2023/12/31 06:54:02;;;;;;;3.22;2.80;;;8.20;99.90;;;;;;6301237;22;20678;-77
2023/12/31 06:56:29;;;;;;;5.05;3.13;;;8.10;99.90;;;;;;6303021;22;20038;-77
2023/12/31 06:58:54;;;;;;;5.68;3.20;;;8.10;99.90;;;;;;6301130;22;20549;-77
2023/12/31 07:01:20;;;;;;;3.80;2.85;;;8.20;99.90;;;;;;6275876;22;20023;-77
2023/12/31 07:03:46;;;;;;;5.43;2.92;;;8.20;99.90;;;;;;6301659;22;20089;-77
2023/12/31 07:06:11;;;;;;;3.85;3.45;;;8.20;99.90;;;;;;6301693;22;20011;-77
2023/12/31 07:08:37;;;;;;;3.78;2.85;;;8.20;99.90;;;;;;6301094;22;20019;-77
2023/12/31 07:11:04;;;;;;;4.32;2.90;;;8.30;99.90;;;;;;6301047;22;20076;-77
2023/12/31 07:13:30;;;;;;;4.35;3.08;;;8.20;99.90;;;;;;6301139;22;20091;-77
2023/12/31 07:15:59;;;;;;;3.08;2.80;;;8.20;99.90;;;;;;6300983;22;20112;-77
2023/12/31 07:18:25;;;;;;;3.25;2.88;;;8.20;99.90;;;;;;6300943;22;20100;-77
2023/12/31 07:20:54;;;;;;;4.38;3.15;;;8.20;99.90;;;;;;6302755;22;20118;-77
2023/12/31 07:23:20;;;;;;;3.67;2.83;;;8.20;99.90;;;;;;6302475;22;20470;-77
2023/12/31 07:25:46;;;;;;;3.13;2.83;;;8.20;99.90;;;;;;6301028;22;20019;-77
2023/12/31 07:28:12;;;;;;;6.28;3.13;;;8.20;99.90;;;;;;6300914;22;20072;-77
2023/12/31 07:30:39;;;;;;;6.70;2.88;;;8.30;99.90;;;;;;6300852;22;20012;-77
2023/12/31 07:33:05;;;;;;;5.50;2.95;;;8.20;99.90;;;;;;6300882;22;20098;-77
2023/12/31 07:35:34;;;;;;;4.13;3.00;;;8.20;99.90;;;;;;6300827;22;20090;-78
2023/12/31 07:38:01;;;;;;;3.38;2.95;;;8.20;99.90;;;;;;6300800;22;20096;-78
2023/12/31 07:40:27;;;;;;;5.95;3.03;;;8.20;99.90;;;;;;6303092;22;20015;-75
2023/12/31 07:42:52;;;;;;;5.03;2.95;;;8.30;99.90;;;;;;6300822;22;20179;-75
2023/12/31 07:45:18;;;;;;;3.63;2.80;;;8.30;99.90;;;;;;6300235;22;20011;-76
2023/12/31 07:47:44;;;;;;;3.42;2.78;;;8.30;99.90;;;;;;6302865;22;20098;-75
2023/12/31 07:50:10;;;;;;;3.65;2.90;;;8.40;99.90;;;;;;6300611;22;20019;-75
2023/12/31 07:52:36;;;;;;;4.47;3.05;;;8.30;99.90;;;;;;6300461;22;20088;-75
2023/12/31 07:55:03;;;;;;;3.40;2.95;;;8.30;99.90;;;;;;6300255;22;20580;-75
2023/12/31 07:57:29;;;;;;;4.05;3.30;;;8.30;99.90;;;;;;6300499;22;20095;-75
2023/12/31 07:59:55;;;;;;;3.42;3.13;;;8.40;99.90;;;;;;6300435;22;20051;-76
2023/12/31 08:02:20;;;;;;;4.07;3.20;;;8.40;99.90;;;;;;6301035;22;20204;-76
2023/12/31 08:04:46;;;;;;;5.65;3.10;;;8.40;99.90;;;;;;6304451;22;20019;-76
2023/12/31 08:07:12;;;;;;;3.60;2.97;;;8.40;99.90;;;;;;6308624;22;20085;-75
2023/12/31 08:09:38;;;;;;;3.03;2.60;;;8.40;99.90;;;;;;6280900;22;20019;-76
2023/12/31 08:12:04;;;;;;;6.88;3.30;;;8.40;99.90;;;;;;6279484;22;20015;-77
2023/12/31 08:14:29;;;;;;;5.30;3.92;;;8.40;99.90;;;;;;6300983;22;20058;-77
2023/12/31 08:16:55;;;;;;;8.48;4.38;;;8.50;99.90;;;;;;6301042;22;20011;-77
2023/12/31 08:19:21;;;;;;;3.30;3.00;;;8.40;99.90;;;;;;6301033;22;20011;-77
2023/12/31 08:21:47;;;;;;;3.95;2.90;;;8.50;99.90;;;;;;6300062;22;20451;-72
2023/12/31 08:24:20;;;;;;;6.85;3.95;;;8.40;99.90;;;;;;6300951;22;20064;-77
2023/12/31 08:26:46;;;;;;;4.45;2.30;;;8.50;99.90;;;;;;6274887;22;20015;-77
2023/12/31 08:29:12;;;;;;;2.65;2.17;;;8.50;99.90;;;;;;6300261;22;20011;-77
2023/12/31 08:31:38;;;;;;;3.10;2.80;;;8.50;99.90;;;;;;6300124;22;20011;-77
2023/12/31 08:34:03;;;;;;;3.88;3.22;;;8.50;99.90;;;;;;6300158;22;20393;-77
2023/12/31 08:36:29;;;;;;;5.43;2.45;;;8.50;99.90;;;;;;6299962;22;20022;-77
2023/12/31 08:38:55;;;;;;;2.50;2.30;;;8.50;99.90;;;;;;6300269;22;20068;-77
2023/12/31 08:41:21;;;;;;;9.02;2.97;;;8.50;99.90;;;;;;6302139;22;20012;-77
2023/12/31 08:43:48;;;;;;;4.57;2.70;;;8.50;99.90;;;;;;6300245;22;20126;-76
2023/12/31 08:46:14;;;;;;;4.97;2.90;;;8.50;99.90;;;;;;6300590;22;20753;-76
2023/12/31 08:48:40;;;;;;;6.18;2.95;;;8.60;99.90;;;;;;6275021;22;20423;-77
2023/12/31 08:51:05;;;;;;;3.10;2.67;;;8.70;99.90;;;;;;6274648;22;20018;-77
2023/12/31 08:53:32;;;;;;;5.25;3.20;;;8.70;99.90;;;;;;6300713;22;20015;-77
2023/12/31 08:55:57;;;;;;;4.10;2.80;;;8.70;99.90;;;;;;6300817;22;20023;-77
2023/12/31 08:58:23;;;;;;;3.75;2.78;;;8.70;99.90;;;;;;6275041;22;20343;-77
2023/12/31 09:00:49;;;;;;;4.03;3.13;;;8.70;99.90;;;;;;6300866;22;20397;-77
2023/12/31 09:03:15;;;;;;;4.03;2.78;;;8.70;99.90;;;;;;6275129;22;20011;-77
2023/12/31 09:05:41;;;;;;;5.30;2.83;;;8.70;99.90;;;;;;6275157;22;20014;-76
2023/12/31 09:08:06;;;;;;;3.97;2.58;;;8.60;99.90;;;;;;6300686;22;20136;-77
2023/12/31 09:10:32;;;;;;;3.88;2.63;;;8.70;99.90;;;;;;6302554;22;20062;-77
2023/12/31 09:12:59;;;;;;;5.45;2.60;;;8.70;99.90;;;;;;6300646;22;20019;-77
2023/12/31 09:15:24;;;;;;;4.55;3.03;;;8.60;99.90;;;;;;6300477;22;20076;-76
2023/12/31 09:17:50;;;;;;;3.38;2.90;;;8.70;99.90;;;;;;6300326;22;20064;-75
2023/12/31 09:20:16;;;;;;;4.43;2.90;;;8.80;99.90;;;;;;6300428;22;20003;-79
2023/12/31 09:22:41;;;;;;;4.45;3.10;;;8.70;99.90;;;;;;6300259;22;20126;-79
2023/12/31 09:25:08;;;;;;;3.13;2.78;;;8.80;99.90;;;;;;6300538;22;20015;-79
2023/12/31 09:27:34;;;;;;;4.43;3.53;;;8.80;99.90;;;;;;6300331;22;20019;-79
2023/12/31 09:30:00;;;;;;;3.78;2.75;;;8.80;99.90;;;;;;6274784;22;20027;-78
2023/12/31 09:32:26;;;;;;;3.20;2.90;;;8.90;99.90;;;;;;6300413;22;20016;-78
2023/12/31 09:34:51;;;;;;;2.95;2.65;;;8.90;99.90;;;;;;6300570;22;20046;-78
2023/12/31 09:37:20;;;;;;;3.58;3.15;;;8.90;99.90;;;;;;6300501;22;20015;-78
2023/12/31 09:39:47;;;;;;;5.45;3.22;;;8.90;99.90;;;;;;6275056;22;20351;-78
2023/12/31 09:42:15;;;;;;;4.38;3.33;;;8.90;99.90;;;;;;6300852;22;20019;-78
2023/12/31 09:44:41;;;;;;;3.17;2.58;;;8.90;99.90;;;;;;6302786;22;20086;-78
2023/12/31 09:47:11;;;;;;;4.22;3.17;;;9.00;99.90;;;;;;6300568;22;20347;-77
2023/12/31 09:49:39;;;;;;;6.63;3.83;;;9.00;99.90;;;;;;6274961;22;20460;-77
2023/12/31 09:52:09;;;;;;;4.22;3.45;;;9.10;99.90;;;;;;6300754;22;20022;-77
2023/12/31 09:54:40;;;;;;;6.22;3.67;;;9.10;99.90;;;;;;6300802;22;20015;-78
2023/12/31 09:57:06;;;;;;;4.38;2.88;;;9.20;99.90;;;;;;6300843;22;20038;-79
2023/12/31 09:59:32;;;;;;;3.60;3.08;;;9.30;99.90;;;;;;6300530;22;20023;-77
2023/12/31 10:02:04;;;;;;;4.75;3.42;;;9.30;99.90;;;;;;6274846;22;20111;-77
2023/12/31 10:04:30;;;;;;;4.80;3.10;;;9.30;99.90;;;;;;6301334;22;20025;-77
2023/12/31 10:06:57;;;;;;;5.68;3.85;;;9.40;99.90;;;;;;6300841;22;20053;-77
2023/12/31 10:09:28;;;;;;;3.80;3.00;;;9.40;99.90;;;;;;6300439;22;20110;-77
2023/12/31 10:11:57;;;;;;;3.83;2.85;;;9.40;99.90;;;;;;6299661;22;20015;-76
2023/12/31 10:14:25;;;;;;;5.03;2.83;;;9.40;99.90;;;;;;6300241;22;20045;-77
2023/12/31 10:16:51;;;;;;;3.72;3.20;;;9.40;99.90;;;;;;6300266;22;20046;-77
2023/12/31 10:19:16;;;;;;;7.18;3.00;;;9.40;99.90;;;;;;6300501;22;20387;-77
2023/12/31 10:21:43;;;;;;;3.13;2.80;;;9.40;99.90;;;;;;6274549;22;20030;-77
2023/12/31 10:24:09;;;;;;;3.25;2.60;;;9.40;99.90;;;;;;6274890;22;20100;-77
2023/12/31 10:26:36;;;;;;;5.28;3.00;;;9.50;99.90;;;;;;6300195;22;20102;-77
2023/12/31 10:29:04;;;;;;;4.32;3.85;;;9.50;99.90;;;;;;6274480;22;20030;-80
2023/12/31 10:31:31;;;;;;;3.55;3.25;;;9.60;99.90;;;;;;6295212;22;20031;-82
2023/12/31 10:34:16;;;;;;;3.45;2.97;;;9.60;99.90;;;;;;6297970;22;20592;-80
2023/12/31 10:36:46;;;;;;;3.80;2.75;;;9.60;99.90;;;;;;6294646;22;20022;-81
2023/12/31 10:39:29;;;;;;;4.13;3.22;;;9.60;99.90;;;;;;6299319;22;20057;-81
2023/12/31 10:41:59;;;;;;;3.08;2.70;;;9.70;99.90;;;;;;6273520;22;20027;-80
2023/12/31 10:44:26;;;;;;;5.15;3.67;;;9.70;99.90;;;;;;6299590;22;20098;-80
2023/12/31 10:46:59;;;;;;;3.75;3.25;;;9.70;99.90;;;;;;6299212;22;20030;-80
2023/12/31 10:49:29;;;;;;;3.78;2.83;;;9.80;99.90;;;;;;6299316;22;20015;-79
2023/12/31 10:51:55;;;;;;;4.13;3.72;;;9.70;99.90;;;;;;6248427;22;20465;-78
2023/12/31 10:54:47;;;;;;;3.78;3.20;;;9.80;99.90;;;;;;6298917;22;20050;-79
2023/12/31 10:57:15;;;;;;;6.63;3.65;;;9.80;99.90;;;;;;6299274;22;20011;-80
2023/12/31 10:59:41;;;;;;;3.85;2.80;;;9.80;99.90;;;;;;6298446;22;20153;-79
2023/12/31 11:02:16;;;;;;;3.30;2.78;;;9.90;99.90;;;;;;6298686;22;20109;-81
2023/12/31 11:04:45;;;;;;;6.15;3.95;;;9.90;99.90;;;;;;6299589;22;20023;-81
2023/12/31 11:07:18;;;;;;;4.15;3.53;;;9.90;99.90;;;;;;6299450;22;20011;-80
2023/12/31 11:09:48;;;;;;;5.80;3.63;;;9.90;99.90;;;;;;6294557;22;20015;-79
2023/12/31 11:12:15;;;;;;;8.30;4.20;;;9.90;99.90;;;;;;6299024;22;20019;-81
2023/12/31 11:14:50;;;;;;;3.78;3.25;;;10.00;99.90;;;;;;6300830;22;20019;-80
2023/12/31 11:17:50;;;;;;;5.35;4.22;;;10.20;99.90;;;;;;6299692;22;20446;-80
2023/12/31 11:20:41;;;;;;;4.05;3.13;;;10.10;99.90;;;;;;6300221;22;20019;-80
2023/12/31 11:23:38;;;;;;;4.97;3.40;;;10.20;99.90;;;;;;6301050;22;20027;-79
2023/12/31 11:26:06;;;;;;;5.78;4.82;;;10.20;99.90;;;;;;6268987;22;20296;-80
2023/12/31 11:28:34;;;;;;;5.38;4.38;;;10.10;99.90;;;;;;6301007;22;21001;-79
2023/12/31 11:31:03;;;;;;;5.13;3.35;;;10.10;99.90;;;;;;6300456;22;20019;-78
2023/12/31 11:33:33;;;;;;;4.68;3.05;;;10.00;99.90;;;;;;6300983;22;20019;-77
2023/12/31 11:36:05;;;;;;;4.05;3.30;;;10.00;99.90;;;;;;6302563;22;20019;-80
2023/12/31 11:39:14;;;;;;;5.00;3.53;;;10.00;99.90;;;;;;6276415;22;20019;-84
2023/12/31 11:41:52;;;;;;;4.95;3.55;;;10.00;99.90;;;;;;6275595;22;20524;-79
2023/12/31 11:44:41;;;;;;;3.92;3.60;;;10.00;99.90;;;;;;6300155;22;20117;-80
2023/12/31 11:47:12;;;;;;;6.07;3.70;;;10.00;99.90;;;;;;6301296;22;20111;-79
2023/12/31 11:49:49;;;;;;;3.08;1.60;;;9.90;99.90;;;;;;6301466;22;20030;-80
2023/12/31 11:52:15;;;;;;;2.45;1.33;;;9.80;99.90;;;;;;6303571;22;20094;-78
2023/12/31 11:54:44;;;;;;;2.20;1.95;;;9.40;99.90;;;;;;6303468;22;20047;-78
2023/12/31 11:57:10;;;;;;;1.92;1.50;;;9.30;99.90;;;;;;6275959;22;20015;-78
2023/12/31 11:59:37;;;;;;;1.73;1.42;;;9.20;99.90;;;;;;6300923;22;20034;-79
2023/12/31 12:02:05;;;;;;;1.80;1.70;;;9.10;99.90;;;;;;6300846;22;20015;-78
2023/12/31 12:04:32;;;;;;;3.33;2.40;;;9.00;99.90;;;;;;6275296;22;20398;-78
2023/12/31 12:06:58;;;;;;;4.70;2.95;;;8.90;99.90;;;;;;6275196;22;20015;-78
2023/12/31 12:09:28;;;;;;;6.05;1.90;;;8.90;99.90;;;;;;6274998;22;20455;-79
2023/12/31 12:11:59;;;;;;;9.18;6.18;;;8.80;99.90;;;;;;6300710;22;20105;-78
2023/12/31 12:14:25;;;;;;;10.95;8.35;;;8.70;99.90;;;;;;6274851;22;20196;-75
2023/12/31 12:16:51;;;;;;;11.18;8.05;;;8.70;99.90;;;;;;6302849;22;20035;-75
2023/12/31 12:19:16;;;;;;;7.57;5.00;;;8.80;99.90;;;;;;6275280;22;20027;-75
2023/12/31 12:21:43;;;;;;;5.57;4.20;;;8.80;99.90;;;;;;6300739;22;20057;-79
2023/12/31 12:24:10;;;;;;;4.40;3.63;;;8.80;99.90;;;;;;6299652;22;20098;-79
2023/12/31 12:26:36;;;;;;;4.63;2.45;;;8.70;99.90;;;;;;6274996;22;20050;-76
2023/12/31 12:29:02;;;;;;;2.50;2.30;;;8.60;99.90;;;;;;6300998;22;20030;-74
2023/12/31 12:31:37;;;;;;;6.60;3.70;;;8.60;99.90;;;;;;6300622;22;20185;-73
2023/12/31 12:34:06;;;;;;;5.32;2.85;;;8.60;99.90;;;;;;6300100;22;20356;-73
2023/12/31 12:36:32;;;;;;;6.68;2.92;;;8.60;99.90;;;;;;6274214;22;20026;-72
2023/12/31 12:39:05;;;;;;;3.60;3.00;;;8.60;99.90;;;;;;6300224;22;20068;-74
2023/12/31 12:41:37;;;;;;;4.93;4.05;;;8.60;99.90;;;;;;6299826;22;20026;-73
2023/12/31 12:44:14;;;;;;;3.47;2.85;;;8.60;99.90;;;;;;6302427;22;20484;-74
2023/12/31 12:46:41;;;;;;;6.40;3.97;;;8.70;99.90;;;;;;6302503;22;20086;-74
2023/12/31 12:49:08;;;;;;;9.90;7.43;;;8.70;99.90;;;;;;6299949;22;20023;-73
2023/12/31 12:51:35;;;;;;;4.85;2.85;;;8.70;99.90;;;;;;6299131;22;20016;-74
2023/12/31 12:54:04;;;;;;;6.07;4.43;;;8.80;99.90;;;;;;6274392;22;20007;-73
2023/12/31 12:56:34;;;;;;;8.45;6.15;;;8.80;99.90;;;;;;6301955;22;20057;-73
2023/12/31 12:59:00;;;;;;;4.07;3.38;;;8.90;99.90;;;;;;6299837;22;20439;-75
2023/12/31 13:01:27;;;;;;;4.47;3.33;;;8.90;99.90;;;;;;6301702;22;20057;-74
2023/12/31 13:03:53;;;;;;;6.25;4.03;;;8.90;99.90;;;;;;6301563;22;20023;-75
2023/12/31 13:06:19;;;;;;;5.15;4.03;;;8.90;99.90;;;;;;6299973;22;20072;-75